createdAt,value
2023-03-17T00:04:58.112Z,4.50
2023-03-17T00:15:02.490Z,9.52
2023-03-17T00:25:19.300Z,10.57
2023-03-17T00:35:26.692Z,7.20
2023-03-17T00:45:30.418Z,8.52
2023-03-17T00:55:35.246Z,7.13
2023-03-17T01:05:38.996Z,7.93
2023-03-17T01:15:47.346Z,8.23
2023-03-17T01:25:50.848Z,8.10
2023-03-17T01:35:55.917Z,6.60
2023-03-17T01:46:27.691Z,6.78
2023-03-17T01:56:32.484Z,16.73
2023-03-17T02:06:42.115Z,7.83
2023-03-17T02:16:52.044Z,7.15
2023-03-17T02:27:00.483Z,11.73
2023-03-17T02:37:03.511Z,8.45
2023-03-17T02:47:08.646Z,10.23
2023-03-17T03:07:16.212Z,7.97
2023-03-17T03:17:19.308Z,9.17
2023-03-17T03:27:23.632Z,7.68
2023-03-17T03:37:27.089Z,11.17
2023-03-17T03:47:33.683Z,8.93
2023-03-17T03:57:36.968Z,7.55
2023-03-17T04:07:41.840Z,7.72
2023-03-17T04:17:44.816Z,11.27
2023-03-17T04:27:49.888Z,10.55
2023-03-17T04:47:57.249Z,9.57
2023-03-17T04:58:00.263Z,16.27
2023-03-17T05:08:05.032Z,18.85
2023-03-17T05:18:08.318Z,19.75
2023-03-17T05:28:13.387Z,18.73
2023-03-17T05:48:21.316Z,17.08
2023-03-17T05:58:24.336Z,15.73
2023-03-17T06:08:28.728Z,17.95
2023-03-17T06:18:31.809Z,15.50
2023-03-17T06:28:36.444Z,16.75
2023-03-17T06:38:39.452Z,17.00
2023-03-17T06:48:43.809Z,12.23
2023-03-17T06:58:48.158Z,14.10
2023-03-17T07:08:52.533Z,11.63
2023-03-17T07:18:55.553Z,11.20
2023-03-17T07:29:01.422Z,12.60
2023-03-17T07:39:04.820Z,11.18
2023-03-17T07:49:09.332Z,20.23
2023-03-17T07:59:12.319Z,11.90
2023-03-17T08:09:17.066Z,9.23
2023-03-17T08:19:20.058Z,12.63
2023-03-17T08:29:24.792Z,10.23
2023-03-17T08:39:28.064Z,11.77
2023-03-17T08:49:34.866Z,10.60
2023-03-17T08:59:37.947Z,7.20
2023-03-17T09:09:42.502Z,7.50
2023-03-17T09:19:45.498Z,10.65
2023-03-17T09:29:51.221Z,13.63
2023-03-17T09:39:54.166Z,7.68
2023-03-17T09:50:02.167Z,8.55
2023-03-17T10:00:08.297Z,8.77
2023-03-17T10:10:17.085Z,7.82
2023-03-17T10:20:26.527Z,6.18
2023-03-17T10:30:34.584Z,8.48
2023-03-17T10:40:37.855Z,14.18
2023-03-17T10:50:42.311Z,8.60
2023-03-17T11:10:57.692Z,9.15
2023-03-17T11:21:08.207Z,6.80
2023-03-17T11:31:20.521Z,11.25
2023-03-17T11:41:44.978Z,9.77
2023-03-17T11:52:03.178Z,7.75
2023-03-17T12:02:19.065Z,9.45
2023-03-17T12:12:31.312Z,8.25
2023-03-17T12:22:39.491Z,8.70
2023-03-17T12:32:51.479Z,9.35
2023-03-17T12:43:07.403Z,9.82
2023-03-17T12:53:33.796Z,6.10
2023-03-17T13:03:38.784Z,8.80
2023-03-17T13:13:48.147Z,8.60
2023-03-17T13:23:57.942Z,6.88
2023-03-17T13:34:14.152Z,8.82
2023-03-17T13:44:32.543Z,6.15
2023-03-17T13:54:43.480Z,9.20
2023-03-17T14:04:53.515Z,5.07
2023-03-17T14:15:07.606Z,11.48
2023-03-17T14:25:17.818Z,6.95
2023-03-17T14:35:22.234Z,8.02
2023-03-17T14:45:31.106Z,6.95
2023-03-17T14:55:41.574Z,8.27
2023-03-17T15:05:46.737Z,6.50
2023-03-17T15:25:56.698Z,6.43
2023-03-17T15:36:01.687Z,6.28
2023-03-17T15:46:08.419Z,6.60
2023-03-17T15:56:18.944Z,11.35
2023-03-17T16:06:23.175Z,9.18
2023-03-17T16:26:33.940Z,6.07
2023-03-17T16:36:38.495Z,6.13
2023-03-17T16:46:44.932Z,4.43
2023-03-17T16:56:49.752Z,8.25
2023-03-17T17:06:52.826Z,7.00
2023-03-17T17:16:57.350Z,6.35
2023-03-17T17:27:00.390Z,6.30
2023-03-17T17:37:04.889Z,6.35
2023-03-17T17:57:13.831Z,6.65
2023-03-17T18:07:16.842Z,7.35
2023-03-17T18:17:22.050Z,6.35
2023-03-17T18:27:25.262Z,8.65
2023-03-17T18:37:32.463Z,6.80
2023-03-17T18:47:36.669Z,7.72
2023-03-17T18:57:44.205Z,6.80
2023-03-17T19:07:48.007Z,8.10
2023-03-17T19:17:52.434Z,5.22
2023-03-17T19:27:57.949Z,9.48
2023-03-17T19:38:03.472Z,7.00
2023-03-17T19:48:06.632Z,9.07
2023-03-17T19:58:12.519Z,6.18
2023-03-17T20:08:15.674Z,8.88
2023-03-17T20:18:20.273Z,10.82
2023-03-17T20:28:23.270Z,9.82
2023-03-17T20:38:27.996Z,14.57
2023-03-17T20:58:35.764Z,10.05
2023-03-17T21:08:39.575Z,10.15
2023-03-17T21:18:43.945Z,13.43
2023-03-17T21:28:47.680Z,10.53
2023-03-17T21:38:52.092Z,16.83
2023-03-17T21:48:55.936Z,16.40
2023-03-17T21:59:00.345Z,9.30
2023-03-17T22:09:04.428Z,15.98
2023-03-17T22:19:09.896Z,11.57
2023-03-17T22:29:13.600Z,14.63
2023-03-17T22:39:18.095Z,19.65
2023-03-17T22:49:22.400Z,15.05
2023-03-17T22:59:26.881Z,21.02
2023-03-17T23:09:29.866Z,21.47
2023-03-17T23:19:34.656Z,17.38
2023-03-17T23:39:42.389Z,22.90
2023-03-17T23:49:45.401Z,23.40
2023-03-17T23:59:49.953Z,21.02
